Time;durP1;ratioP1;P1;durP2;ratioP2;P2;SDS_P1;SDS_P2;PMS_P1;PMS_P2;Temp;Humidity;BMP_temperature;BMP_pressure;BME280_temperature;BME280_humidity;BME280_pressure;Samples;Min_cycle;Max_cycle;Signal;HPM_P1;HPM_P2
2021/10/31 00:01:40;;;;;;;7.00;6.40;;;;;;;11.98;82.94;99737.91;5018402;28;20196;-83
2021/10/31 00:04:06;;;;;;;7.07;6.37;;;;;;;11.88;83.52;99721.66;5022991;28;20198;-82
2021/10/31 00:06:33;;;;;;;8.03;7.33;;;;;;;11.83;83.99;99702.69;5025887;28;20211;-82
2021/10/31 00:08:59;;;;;;;7.07;6.47;;;;;;;11.86;84.58;99692.09;5021347;28;20203;-85
2021/10/31 00:11:27;;;;;;;7.83;7.03;;;;;;;11.91;84.20;99687.59;5025174;28;20225;-84
2021/10/31 00:13:54;;;;;;;8.70;8.00;;;;;;;11.92;84.42;99691.06;5023449;28;20596;-84
2021/10/31 00:16:20;;;;;;;7.73;7.03;;;;;;;11.94;83.96;99694.47;5022650;28;20203;-82
2021/10/31 00:18:47;;;;;;;7.57;6.97;;;;;;;12.00;84.07;99707.31;5024690;28;20412;-82
2021/10/31 00:21:13;;;;;;;7.80;7.20;;;;;;;12.00;83.85;99716.94;5015902;28;20251;-82
2021/10/31 00:23:40;;;;;;;8.20;7.50;;;;;;;11.92;84.11;99718.06;5029997;28;20626;-83
2021/10/31 00:26:06;;;;;;;7.23;6.53;;;;;;;11.96;84.20;99717.97;5036291;28;20214;-84
2021/10/31 00:28:34;;;;;;;7.00;6.50;;;;;;;11.95;84.03;99714.47;5035051;28;20209;-82
2021/10/31 00:31:00;;;;;;;7.67;7.07;;;;;;;11.95;84.19;99713.63;5036097;28;20224;-84
2021/10/31 00:33:27;;;;;;;7.03;6.43;;;;;;;11.90;84.32;99719.03;5036027;28;20214;-83
2021/10/31 00:35:53;;;;;;;7.30;6.80;;;;;;;11.96;84.25;99733.66;5035751;28;20207;-82
2021/10/31 00:38:20;;;;;;;7.63;7.03;;;;;;;11.98;84.31;99731.84;5035271;28;20206;-85
2021/10/31 00:40:46;;;;;;;7.10;6.50;;;;;;;11.98;84.06;99729.22;5035755;28;20231;-83
2021/10/31 00:43:13;;;;;;;7.50;6.90;;;;;;;11.98;83.98;99735.31;5036262;28;20207;-82
2021/10/31 00:45:41;;;;;;;8.47;7.70;;;;;;;11.95;84.58;99732.78;5035973;28;20202;-83
2021/10/31 00:48:08;;;;;;;8.70;8.00;;;;;;;11.91;84.62;99715.50;5035693;28;20210;-83
2021/10/31 00:50:35;;;;;;;9.27;8.37;;;;;;;11.98;84.58;99714.38;5035669;28;20728;-84
2021/10/31 00:53:02;;;;;;;7.70;7.00;;;;;;;11.98;84.79;99713.53;5036289;28;20237;-84
2021/10/31 00:55:29;;;;;;;8.73;8.03;;;;;;;12.02;84.66;99708.13;5035844;28;20209;-84
2021/10/31 00:57:57;;;;;;;8.63;7.93;;;;;;;12.03;84.81;99708.97;5038569;28;20257;-83
2021/10/31 01:00:23;;;;;;;9.27;8.43;;;;;;;12.04;84.77;99721.16;5019347;28;20303;-86
2021/10/31 01:02:51;;;;;;;9.00;8.30;;;;;;;12.07;84.48;99728.88;5019588;28;20203;-84
2021/10/31 01:05:22;;;;;;;8.37;7.67;;;;;;;12.07;84.69;99721.03;5020031;28;20208;-83
2021/10/31 01:08:13;;;;;;;8.60;8.00;;;;;;;11.98;84.99;99719.63;5020601;28;20219;-83
2021/10/31 01:10:53;;;;;;;8.13;7.43;;;;;;;11.98;85.08;99717.00;5040253;28;20310;-84
2021/10/31 01:13:31;;;;;;;8.23;7.63;;;;;;;12.00;85.15;99723.03;5038979;28;20192;-85
2021/10/31 01:16:07;;;;;;;7.87;7.27;;;;;;;12.01;84.95;99723.88;5039518;28;20205;-82
2021/10/31 01:18:47;;;;;;;8.90;8.17;;;;;;;12.02;85.11;99715.13;5039435;28;20427;-83
2021/10/31 01:21:28;;;;;;;8.37;7.67;;;;;;;12.03;85.12;99719.44;5040217;28;20254;-85
2021/10/31 01:24:17;;;;;;;8.57;7.80;;;;;;;12.03;85.08;99712.47;5039937;28;20269;-83
2021/10/31 01:26:55;;;;;;;8.77;7.87;;;;;;;12.05;85.26;99696.69;5040807;28;20213;-84
2021/10/31 01:29:38;;;;;;;8.23;7.63;;;;;;;12.06;85.52;99698.41;5039717;28;20289;-85
2021/10/31 01:32:17;;;;;;;7.80;7.17;;;;;;;12.13;85.07;99702.50;5040342;28;20210;-83
2021/10/31 01:35:03;;;;;;;7.77;7.17;;;;;;;12.15;85.06;99729.47;5039594;28;20601;-83
2021/10/31 01:37:37;;;;;;;7.80;7.10;;;;;;;12.12;85.47;99719.94;5036632;28;20680;-83
2021/10/31 01:40:12;;;;;;;8.60;8.00;;;;;;;12.09;85.83;99707.00;5038852;28;20251;-84
2021/10/31 01:42:47;;;;;;;8.40;7.60;;;;;;;12.14;85.17;99714.66;5040718;28;20256;-84
2021/10/31 01:45:18;;;;;;;8.13;7.40;;;;;;;12.14;85.77;99725.13;5040222;28;20244;-84
2021/10/31 01:47:55;;;;;;;7.67;7.07;;;;;;;12.22;85.36;99723.09;5039133;28;20213;-84
2021/10/31 01:50:35;;;;;;;7.50;6.90;;;;;;;12.24;85.28;99723.88;5040458;28;20234;-84
2021/10/31 01:53:08;;;;;;;7.40;6.90;;;;;;;12.26;85.02;99729.06;5040604;28;20216;-85
2021/10/31 01:55:38;;;;;;;7.13;6.47;;;;;;;12.23;85.94;99710.84;5040247;28;20196;-84
2021/10/31 01:58:06;;;;;;;7.40;6.77;;;;;;;12.27;85.14;99731.63;5040606;28;20294;-84
2021/10/31 02:00:34;;;;;;;7.77;7.17;;;;;;;12.25;85.50;99741.28;5041308;28;20235;-84
2021/10/31 02:03:02;;;;;;;8.33;7.63;;;;;;;12.27;85.46;99736.00;5042151;28;20203;-84
2021/10/31 02:05:32;;;;;;;7.27;6.67;;;;;;;12.31;85.36;99743.69;5043526;28;20685;-84
2021/10/31 02:08:08;;;;;;;7.10;6.60;;;;;;;12.35;84.97;99756.63;5041021;28;20682;-84
2021/10/31 02:10:36;;;;;;;7.70;7.00;;;;;;;12.38;85.39;99748.69;5037867;28;20226;-82
2021/10/31 02:13:04;;;;;;;7.33;6.63;;;;;;;12.34;85.05;99744.47;5036365;28;20295;-82
2021/10/31 02:15:32;;;;;;;7.33;6.73;;;;;;;12.33;85.38;99754.09;5037049;28;20211;-85
2021/10/31 02:18:00;;;;;;;8.03;7.43;;;;;;;12.34;85.15;99747.94;5036612;28;20207;-83
2021/10/31 02:20:28;;;;;;;6.83;6.23;;;;;;;12.25;85.56;99748.28;5034850;28;20241;-82
2021/10/31 02:22:57;;;;;;;7.63;7.03;;;;;;;12.25;85.57;99740.41;5036349;28;20714;-82
2021/10/31 02:25:24;;;;;;;7.43;6.93;;;;;;;12.23;85.36;99744.84;5036244;28;20203;-83
2021/10/31 02:27:51;;;;;;;7.43;6.93;;;;;;;12.24;85.81;99729.09;5036119;28;20249;-82
2021/10/31 02:30:18;;;;;;;7.57;6.97;;;;;;;12.22;85.59;99740.56;5025372;28;20232;-82
2021/10/31 02:32:45;;;;;;;8.20;7.60;;;;;;;12.16;85.78;99731.16;5016963;28;20223;-82
2021/10/31 02:35:13;;;;;;;8.03;7.43;;;;;;;12.15;85.66;99724.25;5033834;28;20213;-84
2021/10/31 02:37:40;;;;;;;8.60;8.00;;;;;;;12.18;85.71;99733.72;5035610;28;20210;-82
2021/10/31 02:40:10;;;;;;;7.63;7.03;;;;;;;12.11;86.30;99723.50;5035360;28;20236;-82
2021/10/31 02:42:38;;;;;;;8.73;8.03;;;;;;;12.05;87.01;99701.91;5035882;28;20302;-82
2021/10/31 02:45:05;;;;;;;8.67;7.70;;;;;;;12.13;86.57;99720.84;5036135;28;20214;-83
2021/10/31 02:47:35;;;;;;;8.03;7.43;;;;;;;12.15;86.46;99716.38;5035819;28;20288;-83
2021/10/31 02:50:02;;;;;;;8.17;7.57;;;;;;;12.09;86.62;99714.84;5035233;28;20283;-82
2021/10/31 02:52:37;;;;;;;8.13;7.53;;;;;;;12.15;86.52;99726.84;5035372;28;20755;-82
2021/10/31 02:55:10;;;;;;;7.70;7.00;;;;;;;12.14;86.59;99725.13;5034780;28;20207;-82
2021/10/31 02:57:42;;;;;;;7.90;7.30;;;;;;;12.14;86.58;99727.75;5015957;28;20816;-83
2021/10/31 03:00:13;;;;;;;7.93;7.33;;;;;;;12.18;86.69;99720.66;5015099;28;20217;-83
2021/10/31 03:02:40;;;;;;;7.77;7.17;;;;;;;12.18;86.63;99731.13;5027224;28;20203;-83
2021/10/31 03:05:08;;;;;;;8.17;7.57;;;;;;;12.20;86.51;99724.06;5035171;28;20212;-82
2021/10/31 03:07:34;;;;;;;8.37;7.73;;;;;;;12.23;86.67;99726.53;5035151;28;20666;-83
2021/10/31 03:10:01;;;;;;;8.87;7.97;;;;;;;12.19;87.20;99722.34;5034252;28;20257;-82
2021/10/31 03:12:28;;;;;;;8.77;8.07;;;;;;;12.20;87.43;99721.44;5024879;28;20220;-83
2021/10/31 03:14:55;;;;;;;8.53;7.93;;;;;;;12.19;87.31;99714.50;5015000;28;20215;-83
2021/10/31 03:17:21;;;;;;;9.20;8.30;;;;;;;12.19;87.34;99724.94;5015083;28;20213;-84
2021/10/31 03:19:49;;;;;;;9.80;8.83;;;;;;;12.15;87.41;99731.22;5025997;28;20285;-83
2021/10/31 03:22:15;;;;;;;8.30;7.60;;;;;;;12.12;87.94;99711.25;5034339;28;20230;-82
2021/10/31 03:24:42;;;;;;;9.33;8.53;;;;;;;12.13;87.68;99720.84;5034008;28;20214;-83
2021/10/31 03:27:08;;;;;;;8.17;7.47;;;;;;;12.15;87.26;99731.22;5033253;28;20235;-83
2021/10/31 03:29:36;;;;;;;8.33;7.73;;;;;;;12.19;87.53;99736.28;5032629;28;20699;-83
2021/10/31 03:32:03;;;;;;;8.17;7.57;;;;;;;12.10;88.27;99720.94;5032895;28;20206;-83
2021/10/31 03:34:30;;;;;;;8.30;7.43;;;;;;;12.15;87.76;99715.50;5034867;28;20256;-83
2021/10/31 03:36:56;;;;;;;7.67;7.10;;;;;;;12.13;87.89;99720.84;5035196;28;20234;-84
2021/10/31 03:39:23;;;;;;;7.27;6.67;;;;;;;12.15;87.86;99718.13;5033601;28;20210;-82
2021/10/31 03:41:49;;;;;;;8.00;7.37;;;;;;;12.11;88.50;99717.41;5035348;28;20278;-82
2021/10/31 03:44:19;;;;;;;8.43;7.73;;;;;;;12.12;88.24;99719.94;5035149;28;20210;-83
2021/10/31 03:46:47;;;;;;;8.90;8.10;;;;;;;12.14;88.43;99721.66;5035348;28;20598;-82
2021/10/31 03:49:14;;;;;;;9.23;8.53;;;;;;;12.11;88.54;99707.78;5034719;28;20252;-83
2021/10/31 03:51:41;;;;;;;9.70;8.97;;;;;;;12.11;88.33;99727.88;5034728;28;20210;-82
2021/10/31 03:54:07;;;;;;;9.20;8.50;;;;;;;12.09;88.38;99727.06;5035425;28;20271;-84
2021/10/31 03:56:34;;;;;;;10.17;9.23;;;;;;;12.09;88.73;99727.06;5035238;28;20256;-82
2021/10/31 03:59:00;;;;;;;9.67;8.97;;;;;;;12.09;88.34;99734.91;5035453;28;20289;-83
2021/10/31 04:01:28;;;;;;;9.60;8.80;;;;;;;12.10;87.95;99736.63;5035239;28;20695;-85
2021/10/31 04:03:56;;;;;;;10.30;9.50;;;;;;;12.04;88.38;99735.06;5035616;28;20268;-83
2021/10/31 04:06:22;;;;;;;10.47;9.73;;;;;;;12.07;88.37;99741.94;5034848;28;20614;-82
2021/10/31 04:08:49;;;;;;;9.87;9.17;;;;;;;12.04;88.47;99735.06;5035183;28;20198;-82
2021/10/31 04:11:15;;;;;;;9.40;8.70;;;;;;;12.03;88.48;99745.59;5030195;28;20221;-85
2021/10/31 04:13:42;;;;;;;9.80;9.10;;;;;;;12.00;87.89;99743.94;5035342;28;20218;-82
2021/10/31 04:16:08;;;;;;;9.17;8.47;;;;;;;11.99;88.25;99749.22;5034936;28;20194;-82
2021/10/31 04:18:35;;;;;;;10.00;9.20;;;;;;;11.95;88.07;99756.31;5034171;28;20210;-84
2021/10/31 04:21:03;;;;;;;9.90;9.10;;;;;;;11.95;87.74;99763.31;5034881;28;20234;-82
2021/10/31 04:23:30;;;;;;;9.13;8.43;;;;;;;11.91;88.26;99762.56;5034455;28;20700;-82
2021/10/31 04:25:57;;;;;;;9.57;8.77;;;;;;;11.87;88.13;99756.59;5034861;28;20577;-83
2021/10/31 04:28:24;;;;;;;9.27;8.57;;;;;;;11.86;88.49;99757.47;4338570;28;10001581;-83
2021/10/31 04:30:51;;;;;;;9.00;8.30;;;;;;;11.86;88.50;99759.25;5034035;28;20250;-82
2021/10/31 04:33:18;;;;;;;8.77;8.13;;;;;;;11.85;88.66;99754.91;5038208;28;20211;-82
2021/10/31 04:35:44;;;;;;;9.57;8.77;;;;;;;11.81;88.44;99755.94;5039171;28;20627;-83
2021/10/31 04:38:15;;;;;;;8.33;7.73;;;;;;;11.77;88.72;99744.72;5038312;28;20616;-83
2021/10/31 04:40:42;;;;;;;7.47;6.87;;;;;;;11.74;88.77;99731.78;5037772;28;20708;-84
2021/10/31 04:43:11;;;;;;;7.47;6.97;;;;;;;11.70;88.97;99738.88;5038587;28;20245;-82
2021/10/31 04:45:39;;;;;;;6.93;6.43;;;;;;;11.64;88.65;99746.91;5038582;28;20676;-82
2021/10/31 04:48:06;;;;;;;7.70;6.93;;;;;;;11.64;88.56;99746.06;5038507;28;20207;-83
2021/10/31 04:50:33;;;;;;;7.37;6.77;;;;;;;11.54;88.57;99756.00;5066089;22;20264;-80
2021/10/31 04:53:00;;;;;;;6.57;6.07;;;;;;;11.50;88.40;99757.00;5026683;28;20215;-81
2021/10/31 04:55:28;;;;;;;6.07;5.53;;;;;;;11.49;88.20;99768.34;5019616;28;20219;-79
2021/10/31 04:57:55;;;;;;;6.60;6.10;;;;;;;11.44;87.97;99767.66;5038536;28;20701;-81
2021/10/31 05:00:21;;;;;;;6.57;6.07;;;;;;;11.39;88.39;99772.19;5028057;28;20288;-80
2021/10/31 05:02:48;;;;;;;6.07;5.63;;;;;;;11.37;88.32;99771.38;5009296;28;20651;-81
2021/10/31 05:05:14;;;;;;;6.50;6.00;;;;;;;11.34;88.15;99777.56;5017992;28;20216;-81
2021/10/31 05:07:40;;;;;;;6.83;6.23;;;;;;;11.26;88.00;99775.19;5018783;28;20210;-80
2021/10/31 05:10:07;;;;;;;8.17;7.33;;;;;;;11.24;88.11;99766.56;5019063;28;20278;-81
2021/10/31 05:12:35;;;;;;;7.13;6.53;;;;;;;11.21;88.14;99752.72;5016634;28;20245;-80
2021/10/31 05:15:02;;;;;;;6.80;6.30;;;;;;;11.18;88.51;99758.94;5019491;28;20207;-81
2021/10/31 05:17:28;;;;;;;6.67;6.17;;;;;;;11.14;88.32;99765.16;5018891;28;20207;-80
2021/10/31 05:19:55;;;;;;;6.90;6.40;;;;;;;11.12;88.20;99761.75;5017642;28;20292;-81
2021/10/31 05:22:21;;;;;;;6.97;6.43;;;;;;;11.08;87.99;99755.75;5018095;28;20322;-80
2021/10/31 05:24:47;;;;;;;7.40;6.90;;;;;;;11.07;88.22;99753.19;5018501;28;20263;-80
2021/10/31 05:27:14;;;;;;;8.00;7.40;;;;;;;11.01;88.38;99738.56;5017388;28;20203;-79
2021/10/31 05:29:42;;;;;;;8.50;7.80;;;;;;;10.96;88.33;99727.41;5016686;28;20604;-82
2021/10/31 05:32:08;;;;;;;8.93;8.13;;;;;;;10.93;88.49;99730.13;5018850;28;20248;-80
2021/10/31 05:34:34;;;;;;;7.80;7.20;;;;;;;10.92;88.70;99734.50;5017694;28;20686;-80
2021/10/31 05:37:01;;;;;;;8.63;8.03;;;;;;;10.95;88.60;99743.13;5018017;28;20220;-80
2021/10/31 05:39:27;;;;;;;7.37;6.77;;;;;;;10.95;88.71;99743.97;5017435;28;20237;-80
2021/10/31 05:41:54;;;;;;;7.47;6.77;;;;;;;10.96;88.65;99742.22;5017096;28;20227;-80
2021/10/31 05:44:20;;;;;;;7.57;6.97;;;;;;;10.93;88.87;99746.63;5016774;28;20413;-80
2021/10/31 05:46:48;;;;;;;8.10;7.50;;;;;;;10.93;88.87;99746.63;5015251;28;20234;-80
2021/10/31 05:49:14;;;;;;;8.73;7.93;;;;;;;10.91;89.26;99740.59;5007613;28;20249;-81
2021/10/31 05:51:41;;;;;;;8.50;7.80;;;;;;;10.88;89.27;99734.63;5016702;28;20293;-80
2021/10/31 05:54:08;;;;;;;8.53;7.93;;;;;;;10.85;89.28;99746.03;5017532;28;20720;-79
2021/10/31 05:56:35;;;;;;;8.90;8.07;;;;;;;10.84;89.22;99743.44;5016934;28;20257;-80
2021/10/31 05:59:02;;;;;;;8.97;8.17;;;;;;;10.87;89.21;99751.19;5016402;28;20212;-79
2021/10/31 06:01:28;;;;;;;8.60;7.90;;;;;;;10.89;89.33;99742.41;5011508;28;20511;-80
2021/10/31 06:03:56;;;;;;;8.30;7.63;;;;;;;10.90;89.19;99733.69;4997824;28;20208;-81
2021/10/31 06:06:23;;;;;;;10.10;9.30;;;;;;;10.90;89.89;99720.63;4997204;28;20215;-80
2021/10/31 06:08:50;;;;;;;10.37;9.37;;;;;;;10.88;90.36;99695.47;4997349;28;20204;-80
2021/10/31 06:11:17;;;;;;;11.13;9.40;;;;;;;10.88;90.66;99683.28;4997691;28;20263;-81
2021/10/31 06:13:44;;;;;;;9.73;9.03;;;;;;;10.89;90.65;99692.81;5003980;28;20203;-79
2021/10/31 06:16:11;;;;;;;10.00;9.20;;;;;;;10.88;90.68;99687.63;5015958;28;20219;-80
2021/10/31 06:18:37;;;;;;;9.43;8.63;;;;;;;10.87;90.33;99699.81;5016574;28;20199;-80
2021/10/31 06:21:05;;;;;;;10.30;9.00;;;;;;;10.83;89.85;99711.28;5016599;28;20457;-80
2021/10/31 06:23:32;;;;;;;9.80;9.00;;;;;;;10.80;89.95;99714.00;5016906;28;20228;-79
2021/10/31 06:25:58;;;;;;;8.93;8.13;;;;;;;10.83;89.65;99718.25;5016863;28;20592;-80
2021/10/31 06:28:25;;;;;;;8.90;8.20;;;;;;;10.80;89.42;99734.00;5016346;28;20259;-81
2021/10/31 06:30:51;;;;;;;9.13;8.43;;;;;;;10.79;89.36;99746.22;5017951;28;20232;-80
2021/10/31 06:33:17;;;;;;;9.80;9.00;;;;;;;10.78;89.80;99741.88;5016957;28;20257;-81
2021/10/31 06:35:45;;;;;;;8.80;8.10;;;;;;;10.77;89.73;99742.81;5017229;28;20216;-81
2021/10/31 06:38:12;;;;;;;10.57;9.57;;;;;;;10.80;89.04;99739.22;5016359;28;20207;-79
2021/10/31 06:40:39;;;;;;;11.13;10.13;;;;;;;10.78;89.82;99741.03;5014142;28;20223;-80
2021/10/31 06:43:05;;;;;;;10.57;9.47;;;;;;;10.78;90.35;99715.78;4997105;28;20231;-79
2021/10/31 06:45:32;;;;;;;10.00;9.20;;;;;;;10.80;90.28;99715.72;4997109;28;20250;-81
2021/10/31 06:48:00;;;;;;;12.50;11.50;;;;;;;10.79;90.29;99717.50;5012763;28;20204;-80
2021/10/31 06:50:27;;;;;;;13.97;12.77;;;;;;;10.79;91.54;99680.94;5015591;28;20239;-79
2021/10/31 06:52:53;;;;;;;11.63;10.73;;;;;;;10.83;91.41;99681.72;5015971;28;20257;-80
2021/10/31 06:55:21;;;;;;;12.00;11.10;;;;;;;10.84;91.57;99681.66;5016079;28;20282;-80
2021/10/31 06:57:47;;;;;;;11.20;10.20;;;;;;;10.85;91.77;99666.84;5016415;28;20554;-81
2021/10/31 07:00:14;;;;;;;11.67;10.83;;;;;;;10.84;92.80;99645.13;4999149;28;20278;-81
2021/10/31 07:02:40;;;;;;;12.30;11.30;;;;;;;10.89;92.47;99648.41;4999833;28;20222;-80
2021/10/31 07:05:08;;;;;;;11.13;10.23;;;;;;;10.91;92.41;99641.38;5015876;28;20257;-80
2021/10/31 07:07:34;;;;;;;11.10;10.13;;;;;;;10.93;92.39;99642.19;5016370;28;20624;-81
2021/10/31 07:10:00;;;;;;;13.37;12.27;;;;;;;11.01;92.76;99634.09;5015014;28;20779;-80
2021/10/31 07:12:28;;;;;;;11.93;10.73;;;;;;;11.05;92.04;99650.53;4997198;28;20204;-81
2021/10/31 07:14:54;;;;;;;11.03;10.03;;;;;;;11.08;92.29;99650.41;4996660;28;20216;-81
2021/10/31 07:17:21;;;;;;;10.87;9.97;;;;;;;11.12;91.62;99665.09;5006716;28;20215;-80
2021/10/31 07:19:47;;;;;;;10.73;9.83;;;;;;;11.13;91.71;99658.94;5015058;28;20204;-80
2021/10/31 07:22:17;;;;;;;10.17;9.27;;;;;;;11.13;91.71;99669.41;5015304;28;20338;-79
2021/10/31 07:24:45;;;;;;;10.17;9.33;;;;;;;11.18;91.62;99670.09;5015889;28;20203;-81
2021/10/31 07:27:12;;;;;;;10.33;9.43;;;;;;;11.21;91.42;99690.88;5015222;28;20208;-80
2021/10/31 07:29:39;;;;;;;10.87;10.03;;;;;;;11.24;91.48;99679.50;5007469;28;20213;-80
2021/10/31 07:32:07;;;;;;;13.70;12.60;;;;;;;11.27;91.41;99682.00;5006714;28;20192;-79
2021/10/31 07:34:33;;;;;;;16.50;14.90;;;;;;;11.33;91.62;99668.72;5004978;28;20227;-80
2021/10/31 07:37:00;;;;;;;15.67;14.27;;;;;;;11.39;92.01;99660.66;5004827;28;20202;-80
2021/10/31 07:39:28;;;;;;;14.43;13.33;;;;;;;11.43;92.23;99643.97;5005950;28;20205;-81
2021/10/31 07:41:55;;;;;;;15.73;14.27;;;;;;;11.45;92.34;99650.00;5003750;28;20227;-79
2021/10/31 07:44:22;;;;;;;14.53;13.03;;;;;;;11.49;92.88;99638.53;5006636;28;20204;-79
2021/10/31 07:46:49;;;;;;;12.93;11.93;;;;;;;11.56;93.38;99638.31;5009025;28;20734;-79
2021/10/31 07:49:16;;;;;;;13.40;12.30;;;;;;;11.58;93.46;99636.50;5006806;28;20205;-78
2021/10/31 07:51:42;;;;;;;14.33;13.13;;;;;;;11.60;93.25;99635.53;5003122;28;20232;-79
2021/10/31 07:54:10;;;;;;;14.77;13.57;;;;;;;11.67;93.07;99644.00;5001814;28;20204;-79
2021/10/31 07:56:37;;;;;;;14.03;12.93;;;;;;;11.70;93.35;99649.13;5004448;28;20673;-79
2021/10/31 07:59:03;;;;;;;13.57;12.47;;;;;;;11.72;93.36;99640.31;5001902;28;20293;-79
2021/10/31 08:01:30;;;;;;;13.50;12.40;;;;;;;11.76;93.46;99637.59;5004794;28;20223;-79
2021/10/31 08:03:58;;;;;;;15.23;14.03;;;;;;;11.77;93.56;99624.44;5003422;28;20256;-78
2021/10/31 08:06:25;;;;;;;13.20;12.17;;;;;;;11.80;93.49;99623.50;5005356;28;20728;-79
2021/10/31 08:08:51;;;;;;;12.90;11.87;;;;;;;11.84;93.39;99610.25;5008141;28;20207;-79
2021/10/31 08:11:18;;;;;;;13.57;12.47;;;;;;;11.89;93.52;99612.72;5006793;28;20225;-78
2021/10/31 08:13:45;;;;;;;12.20;11.10;;;;;;;11.89;93.42;99624.03;5009091;28;20208;-79
2021/10/31 08:16:12;;;;;;;10.30;9.50;;;;;;;11.95;93.25;99609.88;5008317;28;20695;-78
2021/10/31 08:18:38;;;;;;;12.47;11.47;;;;;;;12.03;92.71;99623.53;5008541;28;20679;-79
2021/10/31 08:21:06;;;;;;;12.63;11.73;;;;;;;12.03;92.94;99633.13;5005698;28;20280;-79
2021/10/31 08:23:32;;;;;;;14.30;13.20;;;;;;;12.03;93.49;99599.09;5008818;28;20706;-79
2021/10/31 08:26:01;;;;;;;11.60;10.60;;;;;;;12.11;93.53;99584.00;5007344;28;20200;-80
2021/10/31 08:28:28;;;;;;;13.57;12.47;;;;;;;12.11;93.68;99592.69;5007927;28;20211;-79
2021/10/31 08:30:58;;;;;;;15.00;13.80;;;;;;;12.06;94.46;99572.84;5008017;28;20721;-79
2021/10/31 08:33:27;;;;;;;15.40;14.20;;;;;;;12.17;94.37;99562.81;5025997;28;20302;-78
2021/10/31 08:35:55;;;;;;;18.00;16.50;;;;;;;12.19;94.71;99552.28;5029025;28;20234;-79
2021/10/31 08:38:23;;;;;;;16.77;15.47;;;;;;;12.37;94.72;99551.56;5028303;28;20575;-78
2021/10/31 08:40:51;;;;;;;15.33;14.17;;;;;;;12.51;nan;99575.41;5022459;28;20227;-78
2021/10/31 08:43:18;;;;;;;15.13;13.93;;;;;;;12.62;93.47;99582.78;5013549;28;20228;-79
2021/10/31 08:45:45;;;;;;;12.93;11.83;;;;;;;12.87;94.36;99579.16;5014815;28;20210;-78
2021/10/31 08:48:13;;;;;;;8.90;8.23;;;;;;;12.95;90.96;99657.44;5018498;28;20231;-78
2021/10/31 08:50:40;;;;;;;8.27;7.67;;;;;;;13.06;90.11;99690.13;5020670;28;20816;-78
2021/10/31 08:53:08;;;;;;;10.03;7.57;;;;;;;13.24;90.41;99685.03;5016312;28;20556;-78
2021/10/31 08:55:36;;;;;;;7.53;6.93;;;;;;;13.28;88.35;99724.16;5007476;28;20215;-79
2021/10/31 08:58:04;;;;;;;14.80;13.43;;;;;;;13.28;88.30;99737.25;5007950;28;20212;-77
2021/10/31 09:00:31;;;;;;;10.90;9.93;;;;;;;13.35;88.02;99748.38;5008557;28;20247;-78
2021/10/31 09:02:57;;;;;;;5.77;5.37;;;;;;;13.49;88.30;99730.28;5008930;28;20261;-78
2021/10/31 09:05:24;;;;;;;6.00;5.50;;;;;;;13.53;86.56;99780.00;5009936;28;20238;-80
2021/10/31 09:07:50;;;;;;;8.10;6.27;;;;;;;13.67;87.01;99764.53;5007721;28;20261;-78
2021/10/31 09:10:16;;;;;;;6.07;5.57;;;;;;;13.71;85.60;99802.81;5007375;28;20282;-78
2021/10/31 09:12:45;;;;;;;5.90;5.40;;;;;;;13.76;86.49;99779.03;5008732;28;20286;-78
2021/10/31 09:15:12;;;;;;;5.57;5.07;;;;;;;13.89;86.66;99757.44;5010194;28;20271;-78
2021/10/31 09:17:38;;;;;;;5.10;4.80;;;;;;;13.96;86.09;99781.63;5007538;28;20221;-79
2021/10/31 09:20:05;;;;;;;5.40;4.67;;;;;;;14.06;85.94;99780.31;5006322;28;20232;-77
2021/10/31 09:22:32;;;;;;;4.90;4.33;;;;;;;14.16;85.38;99775.50;5006848;28;20235;-77
2021/10/31 09:24:59;;;;;;;4.30;3.93;;;;;;;14.27;85.19;99798.66;5007420;28;20302;-78
2021/10/31 09:27:25;;;;;;;4.30;4.00;;;;;;;14.38;84.77;99801.66;5007507;28;20203;-78
2021/10/31 09:29:53;;;;;;;4.73;4.40;;;;;;;14.50;84.48;99806.34;5006961;28;20239;-79
2021/10/31 09:32:31;;;;;;;4.60;4.20;;;;;;;14.60;83.56;99821.72;5008853;28;20206;-78
2021/10/31 09:34:59;;;;;;;4.10;3.80;;;;;;;14.68;83.69;99828.31;5009208;28;20210;-78
2021/10/31 09:37:26;;;;;;;3.90;3.50;;;;;;;14.84;84.66;99772.44;5007104;28;20257;-77
2021/10/31 09:39:52;;;;;;;4.67;3.90;;;;;;;14.91;83.87;99800.16;5005101;28;20286;-76
2021/10/31 09:42:19;;;;;;;5.80;5.30;;;;;;;14.93;81.78;99863.16;5005242;28;20584;-77
2021/10/31 09:44:49;;;;;;;4.83;4.37;;;;;;;14.89;81.14;99909.75;5004839;28;20211;-77
2021/10/31 09:47:20;;;;;;;4.43;4.03;;;;;;;14.87;81.91;99882.69;5005058;28;20294;-77
2021/10/31 09:49:47;;;;;;;4.67;4.17;;;;;;;14.77;81.32;99905.03;5004155;28;20216;-77
2021/10/31 09:52:13;;;;;;;4.57;4.27;;;;;;;14.79;80.87;99897.94;5004553;28;20208;-76
2021/10/31 09:54:40;;;;;;;3.97;3.77;;;;;;;14.89;80.82;99892.19;5004809;28;20213;-77
2021/10/31 09:57:06;;;;;;;4.00;3.70;;;;;;;14.94;81.21;99888.50;5005024;28;20212;-77
2021/10/31 09:59:38;;;;;;;3.83;3.53;;;;;;;14.92;80.66;99892.97;5004548;28;20218;-77
2021/10/31 10:02:13;;;;;;;5.17;4.77;;;;;;;14.86;80.93;99899.34;5004763;28;20238;-78
2021/10/31 10:04:49;;;;;;;4.83;4.53;;;;;;;14.85;80.31;99923.94;5014067;28;21166;-76
2021/10/31 10:07:17;;;;;;;3.97;3.57;;;;;;;14.88;81.58;99879.09;5017303;28;20754;-76
2021/10/31 10:09:51;;;;;;;3.77;3.40;;;;;;;14.74;80.41;99929.66;5016439;28;20209;-75
2021/10/31 10:12:19;;;;;;;3.73;3.43;;;;;;;14.80;80.72;99908.34;4317871;28;10000803;-76
2021/10/31 10:14:51;;;;;;;4.40;4.10;;;;;;;14.81;81.49;99875.91;5004295;28;20305;-77
2021/10/31 10:17:17;;;;;;;4.30;4.00;;;;;;;14.75;83.43;99828.91;5002722;28;20461;-76
2021/10/31 10:19:51;;;;;;;4.13;3.57;;;;;;;14.83;83.21;99804.91;5002392;28;20212;-78
2021/10/31 10:22:19;;;;;;;4.30;4.00;;;;;;;14.83;83.31;99812.78;5001001;28;20204;-77
2021/10/31 10:24:51;;;;;;;3.87;3.43;;;;;;;14.90;84.26;99795.81;5001694;28;20601;-76
2021/10/31 10:27:18;;;;;;;5.63;3.80;;;;;;;14.94;82.41;99846.44;5002240;28;20502;-75
2021/10/31 10:29:45;;;;;;;3.10;2.90;;;;;;;15.05;81.66;99859.94;5000881;28;20980;-77
2021/10/31 10:32:14;;;;;;;3.33;3.13;;;;;;;15.22;81.34;99881.03;5002620;28;20295;-76
2021/10/31 10:34:45;;;;;;;3.80;3.40;;;;;;;15.26;80.60;99913.28;5002206;28;20232;-76
2021/10/31 10:37:14;;;;;;;3.30;3.10;;;;;;;15.37;79.81;99939.09;5000324;28;20213;-77
2021/10/31 10:39:42;;;;;;;3.33;3.03;;;;;;;15.46;78.33;99964.94;5001365;28;20214;-77
2021/10/31 10:42:10;;;;;;;2.50;2.30;;;;;;;15.48;77.94;99995.53;5001614;28;20318;-77
2021/10/31 10:44:38;;;;;;;4.67;3.30;;;;;;;15.59;79.54;99937.13;5001965;28;20229;-78
2021/10/31 10:47:06;;;;;;;2.57;2.40;;;;;;;15.59;76.73;100025.75;5001401;28;20223;-76
2021/10/31 10:49:37;;;;;;;4.20;3.77;;;;;;;15.67;78.04;99997.28;5001268;28;20308;-76
2021/10/31 10:52:21;;;;;;;2.80;2.60;;;;;;;15.71;78.46;99954.13;5000042;28;20562;-76
2021/10/31 10:55:00;;;;;;;2.90;2.70;;;;;;;15.73;77.43;99991.78;5000895;28;20205;-77
2021/10/31 10:57:28;;;;;;;3.67;3.37;;;;;;;15.66;77.12;99991.19;5000603;28;20208;-76
2021/10/31 10:59:57;;;;;;;2.00;1.90;;;;;;;15.78;77.98;99960.84;5000869;28;20238;-77
2021/10/31 11:02:24;;;;;;;2.80;2.60;;;;;;;15.86;77.18;99966.56;5000943;28;20245;-76
2021/10/31 11:04:57;;;;;;;2.20;2.10;;;;;;;15.94;76.15;100004.84;5001193;28;20229;-75
2021/10/31 11:07:33;;;;;;;2.10;2.00;;;;;;;16.04;76.82;99975.34;5000580;28;20214;-76
2021/10/31 11:10:01;;;;;;;2.30;2.10;;;;;;;16.08;76.49;99979.53;5000684;28;20232;-76
2021/10/31 11:12:32;;;;;;;2.57;2.40;;;;;;;16.18;76.44;99972.03;5001004;28;20218;-77
2021/10/31 11:15:02;;;;;;;2.20;2.00;;;;;;;16.19;75.39;99991.31;5001306;28;20212;-76
2021/10/31 11:17:29;;;;;;;2.17;2.07;;;;;;;16.14;76.06;99988.09;5000815;28;20263;-77
2021/10/31 11:19:56;;;;;;;2.20;2.10;;;;;;;16.16;75.74;99989.69;5000034;28;20231;-77
2021/10/31 11:22:24;;;;;;;2.73;2.43;;;;;;;16.02;75.35;100002.69;5000802;28;20207;-77
2021/10/31 11:24:54;;;;;;;4.33;1.90;;;;;;;16.05;76.81;99949.88;5000657;28;20237;-77
2021/10/31 11:27:22;;;;;;;2.80;2.40;;;;;;;16.15;77.25;99916.88;5000772;28;20282;-77
2021/10/31 11:29:50;;;;;;;2.30;2.10;;;;;;;16.20;77.61;99900.88;5000479;28;20208;-78
2021/10/31 11:32:19;;;;;;;2.40;2.20;;;;;;;16.17;77.67;99899.22;5001615;28;20387;-75
2021/10/31 11:34:48;;;;;;;2.40;2.20;;;;;;;16.17;78.62;99870.25;5000455;28;20212;-77